SWA4692 KSAN-KDEN
Flight info
| Callsign | SWA4692 |
|---|---|
| Flight time | N/A |
| Altitude | 37000 |
| Route | ZZOOO4 MTBAL EED J236 TBC CRUDD TBARR4 |
| Aircraft | B737/M-SDE2E3FGHIRWXY/LB1 |
Departure
| Time | 2026-04-21 04:37 |
|---|---|
| Airport | San Diego International Airport (KSAN) |
Arrival
| Time | N/A |
|---|---|
| Airport | Denver International Airport (KDEN) |
| Time | Latitude | Longitude | Altitude | Speed | Heading |
|---|---|---|---|---|---|
| 2026-04-21 03:51 | 32.73346 | -117.20064 | 26 ft | 0 kts | 263° |
| 2026-04-21 04:11 | 32.73346 | -117.20059 | 26 ft | 2 kts | 263° |
| 2026-04-21 04:11 | 32.73348 | -117.20041 | 26 ft | 2 kts | 263° |
| 2026-04-21 04:12 | 32.73350 | -117.20023 | 26 ft | 2 kts | 270° |
| 2026-04-21 04:12 | 32.73346 | -117.20005 | 26 ft | 2 kts | 304° |
| 2026-04-21 04:12 | 32.73334 | -117.19992 | 26 ft | 2 kts | 335° |
| 2026-04-21 04:12 | 32.73318 | -117.19988 | 26 ft | 1 kts | 5° |
| 2026-04-21 04:13 | 32.73312 | -117.19990 | 26 ft | 1 kts | 15° |
| 2026-04-21 04:13 | 32.73309 | -117.19991 | 26 ft | 0 kts | 12° |
| 2026-04-21 04:19 | 32.73346 | -117.20064 | 26 ft | 0 kts | 263° |
| 2026-04-21 04:27 | 32.73347 | -117.20051 | 26 ft | 2 kts | 263° |
| 2026-04-21 04:27 | 32.73349 | -117.20033 | 26 ft | 2 kts | 263° |
| 2026-04-21 04:27 | 32.73349 | -117.20013 | 26 ft | 2 kts | 292° |
| 2026-04-21 04:27 | 32.73340 | -117.19997 | 26 ft | 2 kts | 321° |
| 2026-04-21 04:28 | 32.73326 | -117.19989 | 26 ft | 2 kts | 351° |
| 2026-04-21 04:28 | 32.73316 | -117.19988 | 26 ft | 1 kts | 11° |
| 2026-04-21 04:28 | 32.73309 | -117.19991 | 26 ft | 0 kts | 12° |
| 2026-04-21 04:31 | 32.73315 | -117.19989 | 26 ft | 2 kts | 12° |
| 2026-04-21 04:31 | 32.73336 | -117.19984 | 26 ft | 3 kts | 12° |
| 2026-04-21 04:32 | 32.73364 | -117.19977 | 27 ft | 4 kts | 11° |
| 2026-04-21 04:32 | 32.73400 | -117.19968 | 27 ft | 6 kts | 11° |
| 2026-04-21 04:32 | 32.73464 | -117.19938 | 27 ft | 13 kts | 49° |
| 2026-04-21 04:32 | 32.73457 | -117.19806 | 27 ft | 19 kts | 106° |
| 2026-04-21 04:33 | 32.73413 | -117.19621 | 27 ft | 24 kts | 105° |
| 2026-04-21 04:33 | 32.73365 | -117.19419 | 27 ft | 25 kts | 107° |
| 2026-04-21 04:33 | 32.73315 | -117.19215 | 27 ft | 25 kts | 106° |
| 2026-04-21 04:33 | 32.73262 | -117.19000 | 27 ft | 26 kts | 105° |
| 2026-04-21 04:34 | 32.73210 | -117.18780 | 27 ft | 27 kts | 106° |
| 2026-04-21 04:34 | 32.73155 | -117.18557 | 27 ft | 27 kts | 106° |
| 2026-04-21 04:34 | 32.73099 | -117.18331 | 27 ft | 27 kts | 106° |
| 2026-04-21 04:34 | 32.73045 | -117.18103 | 27 ft | 28 kts | 106° |
| 2026-04-21 04:35 | 32.72987 | -117.17866 | 27 ft | 29 kts | 107° |
| 2026-04-21 04:35 | 32.72952 | -117.17678 | 27 ft | 13 kts | 79° |
| 2026-04-21 04:35 | 32.72999 | -117.17586 | 27 ft | 12 kts | 10° |
| 2026-04-21 04:35 | 32.73039 | -117.17659 | 27 ft | 0 kts | 284° |
| 2026-04-21 04:36 | 32.73040 | -117.17660 | 27 ft | 4 kts | 284° |
| 2026-04-21 04:36 | 32.73146 | -117.18100 | 27 ft | 100 kts | 286° |
| 2026-04-21 04:36 | 32.73413 | -117.19229 | 115 ft | 166 kts | 286° |
| 2026-04-21 04:37 | 32.73781 | -117.20476 | 1174 ft | 159 kts | 289° |
| 2026-04-21 04:37 | 32.74085 | -117.21764 | 2201 ft | 170 kts | 284° |
| 2026-04-21 04:37 | 32.74392 | -117.23219 | 3096 ft | 189 kts | 284° |
| 2026-04-21 04:37 | 32.74772 | -117.24833 | 4047 ft | 208 kts | 284° |
| 2026-04-21 04:38 | 32.75187 | -117.26550 | 5075 ft | 222 kts | 285° |
| 2026-04-21 04:38 | 32.75655 | -117.28448 | 6085 ft | 239 kts | 284° |
| 2026-04-21 04:38 | 32.76135 | -117.30451 | 7107 ft | 257 kts | 284° |
| 2026-04-21 04:38 | 32.76632 | -117.32612 | 8447 ft | 261 kts | 279° |
| 2026-04-21 04:39 | 32.76633 | -117.34760 | 9752 ft | 260 kts | 256° |
| 2026-04-21 04:39 | 32.75893 | -117.36791 | 11056 ft | 260 kts | 237° |
| 2026-04-21 04:39 | 32.74769 | -117.38540 | 12280 ft | 263 kts | 228° |
| 2026-04-21 04:39 | 32.73290 | -117.39917 | 13472 ft | 267 kts | 207° |
| 2026-04-21 04:40 | 32.71436 | -117.40475 | 14633 ft | 273 kts | 186° |
| 2026-04-21 04:40 | 32.69439 | -117.40344 | 15717 ft | 280 kts | 174° |
| 2026-04-21 04:40 | 32.67501 | -117.39607 | 16748 ft | 291 kts | 155° |
| 2026-04-21 04:40 | 32.65941 | -117.37945 | 17786 ft | 302 kts | 130° |
| 2026-04-21 04:41 | 32.64986 | -117.35613 | 18743 ft | 314 kts | 111° |
| 2026-04-21 04:41 | 32.64454 | -117.32982 | 19688 ft | 321 kts | 105° |
| 2026-04-21 04:41 | 32.64024 | -117.30277 | 20605 ft | 327 kts | 104° |
| 2026-04-21 04:41 | 32.63598 | -117.27544 | 21505 ft | 331 kts | 105° |
| 2026-04-21 04:42 | 32.63153 | -117.24748 | 22183 ft | 343 kts | 104° |
| 2026-04-21 04:42 | 32.62758 | -117.21773 | 22610 ft | 363 kts | 101° |
| 2026-04-21 04:42 | 32.62478 | -117.18610 | 23160 ft | 379 kts | 97° |
| 2026-04-21 04:42 | 32.62574 | -117.15312 | 23669 ft | 397 kts | 85° |
| 2026-04-21 04:43 | 32.63225 | -117.11948 | 24140 ft | 415 kts | 74° |
| 2026-04-21 04:43 | 32.64443 | -117.08649 | 24577 ft | 432 kts | 63° |
| 2026-04-21 04:43 | 32.66205 | -117.05537 | 24971 ft | 448 kts | 52° |
| 2026-04-21 04:43 | 32.68470 | -117.02743 | 25373 ft | 462 kts | 41° |
| 2026-04-21 04:44 | 32.71156 | -117.00356 | 25737 ft | 476 kts | 33° |
| 2026-04-21 04:44 | 32.74124 | -116.98189 | 26086 ft | 489 kts | 30° |
| 2026-04-21 04:44 | 32.77138 | -116.96004 | 26684 ft | 496 kts | 32° |
| 2026-04-21 04:44 | 32.80098 | -116.93652 | 27366 ft | 501 kts | 35° |
| 2026-04-21 04:45 | 32.82971 | -116.91100 | 27992 ft | 506 kts | 38° |
| 2026-04-21 04:45 | 32.85775 | -116.88360 | 28820 ft | 506 kts | 40° |
| 2026-04-21 04:45 | 32.88462 | -116.85549 | 29825 ft | 501 kts | 41° |
| 2026-04-21 04:45 | 32.91101 | -116.82656 | 30657 ft | 500 kts | 43° |
| 2026-04-21 04:46 | 32.93653 | -116.79672 | 31467 ft | 499 kts | 45° |
| 2026-04-21 04:46 | 32.96124 | -116.76647 | 32275 ft | 498 kts | 46° |
| 2026-04-21 04:46 | 32.98571 | -116.73589 | 33027 ft | 497 kts | 46° |
| 2026-04-21 04:46 | 33.01010 | -116.70519 | 33751 ft | 497 kts | 46° |
| 2026-04-21 04:47 | 33.03429 | -116.67477 | 34429 ft | 497 kts | 46° |
| 2026-04-21 04:47 | 33.05858 | -116.64432 | 35355 ft | 493 kts | 46° |
| 2026-04-21 04:47 | 33.08270 | -116.61421 | 36283 ft | 490 kts | 46° |
| 2026-04-21 04:47 | 33.10676 | -116.58428 | 36987 ft | 489 kts | 45° |
| 2026-04-21 04:48 | 33.13074 | -116.55452 | 37152 ft | 497 kts | 45° |
| 2026-04-21 04:48 | 33.17977 | -116.49377 | 37188 ft | 502 kts | 45° |
| 2026-04-21 04:49 | 33.21537 | -116.44969 | 37179 ft | 501 kts | 45° |
| 2026-04-21 04:49 | 33.26458 | -116.38869 | 37143 ft | 501 kts | 45° |
| 2026-04-21 04:50 | 33.31376 | -116.32764 | 37099 ft | 502 kts | 46° |
| 2026-04-21 04:50 | 33.36216 | -116.26745 | 37072 ft | 501 kts | 46° |
| 2026-04-21 04:51 | 33.41114 | -116.20642 | 37070 ft | 502 kts | 46° |
| 2026-04-21 04:51 | 33.45991 | -116.14556 | 37312 ft | 499 kts | 46° |
| 2026-04-21 04:51 | 33.48388 | -116.11559 | 38348 ft | 491 kts | 46° |
| 2026-04-21 04:52 | 33.50766 | -116.08585 | 39027 ft | 489 kts | 46° |
| 2026-04-21 04:52 | 33.55612 | -116.02515 | 39064 ft | 501 kts | 46° |
| 2026-04-21 04:53 | 33.60540 | -115.96331 | 39068 ft | 498 kts | 46° |
| 2026-04-21 04:53 | 33.65433 | -115.90182 | 39075 ft | 500 kts | 46° |
| 2026-04-21 04:54 | 33.70291 | -115.84067 | 39120 ft | 499 kts | 46° |
| 2026-04-21 04:54 | 33.75179 | -115.77902 | 39172 ft | 499 kts | 46° |
| 2026-04-21 04:55 | 33.80032 | -115.71770 | 39167 ft | 500 kts | 46° |
| 2026-04-21 04:55 | 33.84911 | -115.65595 | 39124 ft | 498 kts | 46° |
| 2026-04-21 04:56 | 33.89771 | -115.59435 | 39085 ft | 499 kts | 46° |
| 2026-04-21 04:56 | 33.94608 | -115.53291 | 39069 ft | 499 kts | 46° |
| 2026-04-21 04:57 | 33.99458 | -115.47120 | 39068 ft | 499 kts | 46° |
| 2026-04-21 04:57 | 34.04296 | -115.40955 | 39068 ft | 499 kts | 46° |
| 2026-04-21 04:58 | 34.09153 | -115.34753 | 39067 ft | 499 kts | 47° |
| 2026-04-21 04:58 | 34.13921 | -115.28654 | 39067 ft | 499 kts | 47° |
| 2026-04-21 04:59 | 34.18667 | -115.22570 | 39065 ft | 499 kts | 47° |
| 2026-04-21 04:59 | 34.23481 | -115.16389 | 39065 ft | 499 kts | 47° |
| 2026-04-21 05:00 | 34.28281 | -115.10216 | 39065 ft | 499 kts | 47° |
| 2026-04-21 05:00 | 34.35518 | -115.00890 | 39067 ft | 499 kts | 47° |
| 2026-04-21 05:01 | 34.40363 | -114.94630 | 39067 ft | 499 kts | 47° |
| 2026-04-21 05:01 | 34.45167 | -114.88414 | 39067 ft | 499 kts | 47° |
| 2026-04-21 05:02 | 34.49546 | -114.81767 | 39067 ft | 499 kts | 58° |
| 2026-04-21 05:02 | 34.53146 | -114.74393 | 39067 ft | 498 kts | 62° |
| 2026-04-21 05:03 | 34.56550 | -114.66969 | 39067 ft | 498 kts | 62° |
| 2026-04-21 05:03 | 34.60032 | -114.59521 | 39066 ft | 498 kts | 61° |
| 2026-04-21 05:04 | 34.63543 | -114.52191 | 39064 ft | 498 kts | 60° |
| 2026-04-21 05:04 | 34.67120 | -114.44827 | 39063 ft | 498 kts | 60° |
| 2026-04-21 05:05 | 34.70701 | -114.37488 | 39063 ft | 499 kts | 60° |
| 2026-04-21 05:05 | 34.74268 | -114.30174 | 39064 ft | 498 kts | 60° |
| 2026-04-21 05:06 | 34.77779 | -114.22960 | 39066 ft | 498 kts | 60° |
| 2026-04-21 05:06 | 34.81377 | -114.15551 | 39069 ft | 498 kts | 60° |
| 2026-04-21 05:07 | 34.84932 | -114.08215 | 39092 ft | 498 kts | 60° |
| 2026-04-21 05:07 | 34.88508 | -114.00818 | 39128 ft | 498 kts | 60° |
| 2026-04-21 05:08 | 34.92070 | -113.93433 | 39145 ft | 498 kts | 60° |
| 2026-04-21 05:08 | 34.95621 | -113.86054 | 39149 ft | 498 kts | 60° |
| 2026-04-21 05:09 | 34.99166 | -113.78670 | 39147 ft | 498 kts | 60° |
| 2026-04-21 05:09 | 35.02702 | -113.71294 | 39144 ft | 498 kts | 60° |
| 2026-04-21 05:10 | 35.06243 | -113.63892 | 39149 ft | 498 kts | 60° |
| 2026-04-21 05:10 | 35.09796 | -113.56447 | 39159 ft | 498 kts | 60° |
| 2026-04-21 05:11 | 35.13262 | -113.49169 | 39172 ft | 498 kts | 60° |
| 2026-04-21 05:11 | 35.16772 | -113.41782 | 39191 ft | 497 kts | 60° |
| 2026-04-21 05:12 | 35.20294 | -113.34356 | 39206 ft | 498 kts | 61° |
| 2026-04-21 05:12 | 35.23740 | -113.27072 | 39216 ft | 497 kts | 61° |
| 2026-04-21 05:13 | 35.27256 | -113.19626 | 39216 ft | 498 kts | 61° |
| 2026-04-21 05:13 | 35.30758 | -113.12194 | 39213 ft | 497 kts | 61° |
| 2026-04-21 05:14 | 35.34278 | -113.04708 | 39214 ft | 498 kts | 61° |
| 2026-04-21 05:14 | 35.37788 | -112.97224 | 39220 ft | 498 kts | 61° |
| 2026-04-21 05:15 | 35.41285 | -112.89754 | 39234 ft | 498 kts | 61° |
| 2026-04-21 05:15 | 35.44776 | -112.82284 | 39250 ft | 497 kts | 61° |
| 2026-04-21 05:16 | 35.48257 | -112.74815 | 39266 ft | 498 kts | 61° |
| 2026-04-21 05:16 | 35.51730 | -112.67348 | 39258 ft | 498 kts | 61° |
| 2026-04-21 05:17 | 35.55217 | -112.59833 | 39238 ft | 497 kts | 61° |
| 2026-04-21 05:17 | 35.58672 | -112.52369 | 39223 ft | 498 kts | 61° |
| 2026-04-21 05:18 | 35.62154 | -112.44831 | 39217 ft | 497 kts | 61° |
| 2026-04-21 05:18 | 35.65614 | -112.37326 | 39220 ft | 498 kts | 61° |
| 2026-04-21 05:19 | 35.69026 | -112.29907 | 39223 ft | 497 kts | 62° |
| 2026-04-21 05:19 | 35.72449 | -112.22450 | 39219 ft | 497 kts | 62° |
| 2026-04-21 05:20 | 35.74172 | -112.18692 | 39150 ft | 486 kts | 61° |
| 2026-04-21 05:20 | 35.75824 | -112.15084 | 39072 ft | 472 kts | 61° |
| 2026-04-21 05:20 | 35.77436 | -112.11561 | 38995 ft | 460 kts | 60° |
| 2026-04-21 05:20 | 35.79003 | -112.08129 | 38930 ft | 450 kts | 60° |
| 2026-04-21 05:21 | 35.82117 | -112.01299 | 38939 ft | 456 kts | 60° |
| 2026-04-21 05:21 | 35.85286 | -111.94336 | 38953 ft | 455 kts | 60° |
| 2026-04-21 05:22 | 35.88432 | -111.87410 | 38955 ft | 456 kts | 60° |
| 2026-04-21 05:22 | 35.91572 | -111.80482 | 38953 ft | 455 kts | 60° |
| 2026-04-21 05:23 | 35.94720 | -111.73521 | 38946 ft | 456 kts | 60° |
| 2026-04-21 05:23 | 35.97848 | -111.66594 | 38913 ft | 456 kts | 60° |
| 2026-04-21 05:24 | 36.01000 | -111.59597 | 38876 ft | 456 kts | 60° |
| 2026-04-21 05:24 | 36.04109 | -111.52680 | 38845 ft | 456 kts | 60° |
| 2026-04-21 05:25 | 36.07232 | -111.45717 | 38832 ft | 456 kts | 60° |
| 2026-04-21 05:25 | 36.10347 | -111.38763 | 38848 ft | 455 kts | 60° |
| 2026-04-21 05:26 | 36.13395 | -111.31937 | 38877 ft | 449 kts | 60° |
| 2026-04-21 05:26 | 36.16391 | -111.25215 | 38895 ft | 446 kts | 60° |
| 2026-04-21 05:27 | 36.19416 | -111.18417 | 38901 ft | 447 kts | 60° |
| 2026-04-21 05:27 | 36.22451 | -111.11581 | 38906 ft | 447 kts | 60° |
| 2026-04-21 05:28 | 36.25494 | -111.04715 | 38908 ft | 447 kts | 60° |
| 2026-04-21 05:28 | 36.28537 | -110.97835 | 38916 ft | 447 kts | 60° |
| 2026-04-21 05:29 | 36.31558 | -110.90992 | 38925 ft | 447 kts | 60° |
| 2026-04-21 05:29 | 36.34589 | -110.84109 | 38932 ft | 447 kts | 60° |
| 2026-04-21 05:30 | 36.37606 | -110.77241 | 38935 ft | 447 kts | 60° |
| 2026-04-21 05:30 | 36.40625 | -110.70358 | 38941 ft | 447 kts | 60° |
| 2026-04-21 05:31 | 36.43645 | -110.63459 | 38956 ft | 447 kts | 60° |
| 2026-04-21 05:31 | 36.46650 | -110.56579 | 38971 ft | 447 kts | 60° |
| 2026-04-21 05:32 | 36.49664 | -110.49663 | 38980 ft | 446 kts | 60° |
| 2026-04-21 05:32 | 36.52663 | -110.42768 | 38981 ft | 447 kts | 60° |
| 2026-04-21 05:33 | 36.55646 | -110.35895 | 38978 ft | 446 kts | 60° |
| 2026-04-21 05:33 | 36.58597 | -110.29081 | 38954 ft | 445 kts | 60° |
| 2026-04-21 05:34 | 36.61552 | -110.22240 | 38877 ft | 442 kts | 60° |
| 2026-04-21 05:34 | 36.64502 | -110.15403 | 38818 ft | 441 kts | 60° |
| 2026-04-21 05:35 | 36.67456 | -110.08542 | 38797 ft | 442 kts | 60° |
| 2026-04-21 05:35 | 36.70406 | -110.01676 | 38780 ft | 442 kts | 60° |
| 2026-04-21 05:36 | 36.73350 | -109.94807 | 38769 ft | 442 kts | 60° |
| 2026-04-21 05:36 | 36.76292 | -109.87927 | 38765 ft | 442 kts | 60° |
| 2026-04-21 05:37 | 36.79219 | -109.81070 | 38764 ft | 443 kts | 60° |
| 2026-04-21 05:37 | 36.82153 | -109.74180 | 38763 ft | 443 kts | 60° |
| 2026-04-21 05:38 | 36.85073 | -109.67310 | 38768 ft | 442 kts | 60° |
| 2026-04-21 05:38 | 36.88002 | -109.60404 | 38771 ft | 442 kts | 60° |
| 2026-04-21 05:39 | 36.90914 | -109.53524 | 38772 ft | 443 kts | 60° |
| 2026-04-21 05:39 | 36.93836 | -109.46607 | 38770 ft | 442 kts | 60° |
| 2026-04-21 05:40 | 36.96751 | -109.39688 | 38765 ft | 443 kts | 60° |
| 2026-04-21 05:40 | 36.99657 | -109.32777 | 38756 ft | 443 kts | 60° |
| 2026-04-21 05:41 | 37.02537 | -109.25915 | 38748 ft | 444 kts | 60° |
| 2026-04-21 05:41 | 37.05430 | -109.19008 | 38739 ft | 443 kts | 60° |
| 2026-04-21 05:42 | 37.08346 | -109.12028 | 38733 ft | 443 kts | 60° |
| 2026-04-21 05:42 | 37.11217 | -109.05141 | 38731 ft | 444 kts | 60° |
| 2026-04-21 05:43 | 37.14082 | -108.98254 | 38735 ft | 443 kts | 60° |
| 2026-04-21 05:43 | 37.16950 | -108.91344 | 38762 ft | 443 kts | 60° |
| 2026-04-21 05:44 | 37.19842 | -108.84362 | 38798 ft | 443 kts | 60° |
| 2026-04-21 05:44 | 37.22714 | -108.77414 | 38840 ft | 443 kts | 60° |
| 2026-04-21 05:45 | 37.25583 | -108.70458 | 38865 ft | 443 kts | 60° |
| 2026-04-21 05:45 | 37.28460 | -108.63468 | 38872 ft | 443 kts | 60° |
| 2026-04-21 05:46 | 37.31325 | -108.56490 | 38877 ft | 443 kts | 60° |
| 2026-04-21 05:46 | 37.34191 | -108.49497 | 38882 ft | 443 kts | 60° |
| 2026-04-21 05:47 | 37.37057 | -108.42489 | 38888 ft | 443 kts | 60° |
| 2026-04-21 05:47 | 37.39899 | -108.35522 | 38896 ft | 443 kts | 60° |
| 2026-04-21 05:48 | 37.42721 | -108.28590 | 38905 ft | 444 kts | 61° |
| 2026-04-21 05:48 | 37.45560 | -108.21599 | 38913 ft | 444 kts | 61° |
| 2026-04-21 05:49 | 37.48407 | -108.14574 | 38919 ft | 444 kts | 61° |
| 2026-04-21 05:49 | 37.51236 | -108.07578 | 38924 ft | 443 kts | 61° |
| 2026-04-21 05:50 | 37.54073 | -108.00546 | 38927 ft | 443 kts | 61° |
| 2026-04-21 05:50 | 37.56899 | -107.93527 | 38930 ft | 443 kts | 61° |
| 2026-04-21 05:51 | 37.59577 | -107.86861 | 38932 ft | 443 kts | 61° |
| 2026-04-21 05:51 | 37.61407 | -107.82295 | 38933 ft | 443 kts | 61° |
| 2026-04-21 05:52 | 37.64230 | -107.75244 | 38935 ft | 443 kts | 61° |
| 2026-04-21 05:52 | 37.67057 | -107.68162 | 38941 ft | 443 kts | 61° |
| 2026-04-21 05:53 | 37.69861 | -107.61128 | 38947 ft | 443 kts | 61° |
| 2026-04-21 05:53 | 37.72688 | -107.54043 | 38951 ft | 443 kts | 60° |
| 2026-04-21 05:54 | 37.75924 | -107.47417 | 38953 ft | 440 kts | 50° |
| 2026-04-21 05:54 | 37.80182 | -107.41706 | 38950 ft | 439 kts | 42° |
| 2026-04-21 05:55 | 37.84678 | -107.36466 | 38948 ft | 438 kts | 40° |
| 2026-04-21 05:55 | 37.89216 | -107.31252 | 38946 ft | 439 kts | 41° |
| 2026-04-21 05:56 | 37.93713 | -107.26018 | 38945 ft | 438 kts | 41° |
| 2026-04-21 05:56 | 37.98246 | -107.20682 | 38947 ft | 439 kts | 42° |
| 2026-04-21 05:57 | 38.02747 | -107.15350 | 38950 ft | 439 kts | 42° |
| 2026-04-21 05:57 | 38.07261 | -107.09984 | 38948 ft | 439 kts | 42° |
| 2026-04-21 05:58 | 38.11752 | -107.04631 | 38946 ft | 439 kts | 42° |
| 2026-04-21 05:58 | 38.16111 | -106.99174 | 38942 ft | 439 kts | 46° |
| 2026-04-21 05:59 | 38.20098 | -106.93269 | 38935 ft | 440 kts | 49° |
| 2026-04-21 06:00 | 38.26015 | -106.84087 | 38924 ft | 441 kts | 49° |
| 2026-04-21 06:00 | 38.29962 | -106.77991 | 38918 ft | 440 kts | 49° |
| 2026-04-21 06:01 | 38.33915 | -106.71921 | 38914 ft | 440 kts | 49° |
| 2026-04-21 06:01 | 38.37885 | -106.65837 | 38915 ft | 440 kts | 49° |
| 2026-04-21 06:02 | 38.41827 | -106.59795 | 38916 ft | 440 kts | 48° |
| 2026-04-21 06:02 | 38.45787 | -106.53717 | 38919 ft | 440 kts | 48° |
| 2026-04-21 06:03 | 38.49747 | -106.47630 | 38923 ft | 440 kts | 48° |
| 2026-04-21 06:03 | 38.53715 | -106.41519 | 38933 ft | 440 kts | 48° |
| 2026-04-21 06:04 | 38.57658 | -106.35435 | 38794 ft | 436 kts | 48° |
| 2026-04-21 06:04 | 38.59576 | -106.32468 | 38463 ft | 430 kts | 49° |
| 2026-04-21 06:04 | 38.61485 | -106.29515 | 38131 ft | 428 kts | 49° |
| 2026-04-21 06:04 | 38.63396 | -106.26556 | 37798 ft | 430 kts | 49° |
| 2026-04-21 06:05 | 38.65179 | -106.23793 | 37491 ft | 433 kts | 49° |
| 2026-04-21 06:05 | 38.67623 | -106.20029 | 37047 ft | 432 kts | 48° |
| 2026-04-21 06:05 | 38.69544 | -106.17089 | 36540 ft | 425 kts | 48° |
| 2026-04-21 06:06 | 38.71435 | -106.14201 | 35927 ft | 423 kts | 48° |